createdAt,value
2022-12-14T00:01:41.075Z,-3.27
2022-12-14T00:04:08.644Z,-3.25
2022-12-14T00:06:36.246Z,-3.22
2022-12-14T00:09:05.650Z,-3.24
2022-12-14T00:11:33.735Z,-3.23
2022-12-14T00:14:04.967Z,-3.21
2022-12-14T00:16:34.498Z,-3.19
2022-12-14T00:19:03.076Z,-3.16
2022-12-14T00:21:30.907Z,-3.15
2022-12-14T00:23:59.724Z,-3.18
2022-12-14T00:26:29.193Z,-3.16
2022-12-14T00:28:57.088Z,-3.13
2022-12-14T00:31:26.762Z,-3.09
2022-12-14T00:33:55.376Z,-3.05
2022-12-14T00:36:24.301Z,-3.01
2022-12-14T00:38:52.021Z,-2.99
2022-12-14T00:41:20.357Z,-3.00
2022-12-14T00:43:49.185Z,-3.02
2022-12-14T00:46:17.326Z,-2.99
2022-12-14T00:48:46.462Z,-2.95
2022-12-14T00:51:14.788Z,-2.97
2022-12-14T00:53:42.912Z,-2.96
2022-12-14T00:56:11.500Z,-2.96
2022-12-14T00:58:39.053Z,-2.97
2022-12-14T01:01:08.861Z,-2.96
2022-12-14T01:03:36.661Z,-2.95
2022-12-14T01:06:05.756Z,-2.94
2022-12-14T01:08:36.365Z,-2.95
2022-12-14T01:11:06.285Z,-2.97
2022-12-14T01:13:34.083Z,-2.97
2022-12-14T01:16:06.935Z,-3.00
2022-12-14T01:18:35.899Z,-3.00
2022-12-14T01:21:16.722Z,-3.03
2022-12-14T01:23:45.209Z,-3.06
2022-12-14T01:26:13.274Z,-3.06
2022-12-14T01:28:41.068Z,-3.09
2022-12-14T01:31:09.914Z,-3.09
2022-12-14T01:33:37.761Z,-3.10
2022-12-14T01:36:07.225Z,-3.15
2022-12-14T01:38:36.477Z,-3.11
2022-12-14T01:41:05.147Z,-3.09
2022-12-14T01:43:50.107Z,-3.11
2022-12-14T01:46:21.405Z,-3.09
2022-12-14T01:48:51.442Z,-3.05
2022-12-14T01:51:19.259Z,-3.02
2022-12-14T01:53:48.505Z,-3.00
2022-12-14T01:56:17.856Z,-2.98
2022-12-14T01:58:45.427Z,-2.95
2022-12-14T02:01:13.119Z,-2.96
2022-12-14T02:03:46.024Z,-2.98
2022-12-14T02:06:18.603Z,-3.04
2022-12-14T02:08:51.691Z,-3.05
2022-12-14T02:11:29.074Z,-3.03
2022-12-14T02:13:56.569Z,-2.97
2022-12-14T02:16:24.439Z,-2.93
2022-12-14T02:18:52.023Z,-2.87
2022-12-14T02:21:24.994Z,-2.86
2022-12-14T02:24:39.033Z,-2.88
2022-12-14T02:27:16.272Z,-2.90
2022-12-14T02:29:53.968Z,-2.90
2022-12-14T02:32:43.207Z,-2.95
2022-12-14T02:35:18.639Z,-3.00
2022-12-14T02:37:53.630Z,-2.99
2022-12-14T02:40:29.375Z,-2.96
2022-12-14T02:43:07.844Z,-2.94
2022-12-14T02:45:43.287Z,-2.92
2022-12-14T02:48:17.224Z,-2.90
2022-12-14T02:50:54.752Z,-2.87
2022-12-14T02:53:28.757Z,-2.82
2022-12-14T02:56:02.039Z,-2.82
2022-12-14T02:58:34.480Z,-2.85
2022-12-14T03:01:04.876Z,-2.87
2022-12-14T03:03:32.554Z,-2.91
2022-12-14T03:06:01.964Z,-2.90
2022-12-14T03:08:34.207Z,-2.91
2022-12-14T03:11:04.967Z,-2.93
2022-12-14T03:13:37.626Z,-2.95
2022-12-14T03:16:13.849Z,-2.93
2022-12-14T03:18:47.513Z,-2.96
2022-12-14T03:21:19.869Z,-2.96
2022-12-14T03:23:50.723Z,-2.96
2022-12-14T03:26:23.345Z,-2.95
2022-12-14T03:28:54.240Z,-2.97
2022-12-14T03:31:27.483Z,-2.99
2022-12-14T03:33:57.965Z,-3.01
2022-12-14T03:36:29.853Z,-3.01
2022-12-14T03:39:01.378Z,-3.02
2022-12-14T03:41:34.299Z,-3.02
2022-12-14T03:44:14.325Z,-2.97
2022-12-14T03:46:52.774Z,-2.93
2022-12-14T03:49:25.232Z,-2.96
2022-12-14T03:52:01.926Z,-2.99
2022-12-14T03:54:39.430Z,-3.01
2022-12-14T03:57:15.922Z,-3.03
2022-12-14T03:59:53.754Z,-3.06
2022-12-14T04:02:27.832Z,-3.10
2022-12-14T04:05:04.068Z,-3.07
2022-12-14T04:07:38.351Z,-3.06
2022-12-14T04:10:32.789Z,-3.04
2022-12-14T04:13:24.063Z,-3.05
2022-12-14T04:16:18.069Z,-2.98
2022-12-14T04:19:00.963Z,-2.92
2022-12-14T04:21:37.994Z,-2.85
2022-12-14T04:24:31.056Z,-2.81
2022-12-14T04:27:03.231Z,-2.78
2022-12-14T04:29:52.811Z,-2.76
2022-12-14T04:32:26.158Z,-2.78
2022-12-14T04:35:02.565Z,-2.77
2022-12-14T04:37:31.569Z,-2.74
2022-12-14T04:40:05.380Z,-2.73
2022-12-14T04:42:36.735Z,-2.70
2022-12-14T04:45:09.267Z,-2.68
2022-12-14T04:47:42.023Z,-2.67
2022-12-14T04:50:13.945Z,-2.66
2022-12-14T04:52:46.760Z,-2.69
2022-12-14T04:55:18.459Z,-2.75
2022-12-14T04:57:51.733Z,-2.79
2022-12-14T05:00:19.503Z,-2.83
2022-12-14T05:03:05.555Z,-2.85
2022-12-14T05:05:39.664Z,-2.84
2022-12-14T05:08:12.454Z,-2.87
2022-12-14T05:10:42.067Z,-2.85
2022-12-14T05:13:15.534Z,-2.88
2022-12-14T05:15:46.425Z,-2.91
2022-12-14T05:18:14.814Z,-2.93
2022-12-14T05:20:43.787Z,-2.93
2022-12-14T05:23:11.341Z,-2.97
2022-12-14T05:25:38.866Z,-2.97
2022-12-14T05:28:08.434Z,-2.99
2022-12-14T05:30:37.012Z,-3.00
2022-12-14T05:33:05.405Z,-3.01
2022-12-14T05:35:33.197Z,-3.02
2022-12-14T05:38:02.195Z,-3.05
2022-12-14T05:40:29.810Z,-3.03
2022-12-14T05:43:05.764Z,-3.02
2022-12-14T05:45:33.304Z,-2.99
2022-12-14T05:48:01.052Z,-2.96
2022-12-14T05:50:29.027Z,-2.99
2022-12-14T05:52:56.826Z,-3.00
2022-12-14T05:55:25.840Z,-2.97
2022-12-14T05:57:53.380Z,-2.92
2022-12-14T06:00:21.742Z,-2.88
2022-12-14T06:02:49.409Z,-2.84
2022-12-14T06:05:17.333Z,-2.80
2022-12-14T06:07:45.012Z,-2.80
2022-12-14T06:10:12.550Z,-2.79
2022-12-14T06:12:41.541Z,-2.79
2022-12-14T06:15:09.739Z,-2.77
2022-12-14T06:17:37.504Z,-2.76
2022-12-14T06:20:06.369Z,-2.77
2022-12-14T06:22:34.302Z,-2.80
2022-12-14T06:25:04.424Z,-2.84
2022-12-14T06:27:35.011Z,-2.85
2022-12-14T06:30:04.036Z,-2.87
2022-12-14T06:32:31.719Z,-2.88
2022-12-14T06:34:59.316Z,-2.92
2022-12-14T06:37:26.894Z,-2.95
2022-12-14T06:39:54.954Z,-2.96
2022-12-14T06:42:26.256Z,-2.98
2022-12-14T06:44:54.107Z,-3.01
2022-12-14T06:47:23.448Z,-3.02
2022-12-14T06:49:51.528Z,-3.03
2022-12-14T06:52:24.968Z,-3.02
2022-12-14T06:54:54.440Z,-3.01
2022-12-14T06:57:21.981Z,-3.00
2022-12-14T06:59:49.667Z,-2.99
2022-12-14T07:02:21.179Z,-3.01
2022-12-14T07:04:50.557Z,-3.05
2022-12-14T07:07:18.747Z,-3.11
2022-12-14T07:09:48.459Z,-3.13
2022-12-14T07:12:16.410Z,-3.14
2022-12-14T07:14:43.951Z,-3.12
2022-12-14T07:17:11.454Z,-3.12
2022-12-14T07:19:38.987Z,-3.11
2022-12-14T07:22:07.983Z,-3.08
2022-12-14T07:24:35.599Z,-3.03
2022-12-14T07:27:03.307Z,-3.02
2022-12-14T07:29:34.859Z,-3.01
2022-12-14T07:32:02.754Z,-3.00
2022-12-14T07:34:30.343Z,-2.99
2022-12-14T07:36:57.851Z,-3.01
2022-12-14T07:39:27.722Z,-3.05
2022-12-14T07:41:56.188Z,-3.07
2022-12-14T07:44:23.719Z,-3.09
2022-12-14T07:46:51.354Z,-3.08
2022-12-14T07:49:18.978Z,-3.11
2022-12-14T07:51:46.711Z,-3.12
2022-12-14T07:54:15.447Z,-3.09
2022-12-14T07:56:44.641Z,-3.06
2022-12-14T07:59:15.914Z,-3.03
2022-12-14T08:01:44.279Z,-3.01
2022-12-14T08:04:13.948Z,-3.00
2022-12-14T08:06:42.182Z,-3.00
2022-12-14T08:09:12.652Z,-3.01
2022-12-14T08:11:40.716Z,-3.03
2022-12-14T08:14:13.516Z,-3.03
2022-12-14T08:16:41.013Z,-2.99
2022-12-14T08:19:08.672Z,-3.03
2022-12-14T08:21:36.211Z,-3.05
2022-12-14T08:24:03.822Z,-3.06
2022-12-14T08:26:35.548Z,-3.07
2022-12-14T08:29:04.596Z,-3.11
2022-12-14T08:31:34.672Z,-3.13
2022-12-14T08:34:02.977Z,-3.13
2022-12-14T08:36:32.726Z,-3.15
2022-12-14T08:39:02.096Z,-3.17
2022-12-14T08:41:30.120Z,-3.11
2022-12-14T08:43:59.036Z,-3.06
2022-12-14T08:46:28.733Z,-3.01
2022-12-14T08:48:58.158Z,-2.97
2022-12-14T08:51:26.622Z,-2.93
2022-12-14T08:53:55.110Z,-2.87
2022-12-14T08:56:25.233Z,-2.81
2022-12-14T08:58:53.590Z,-2.79
2022-12-14T09:01:28.186Z,-2.76
2022-12-14T09:04:05.377Z,-2.71
2022-12-14T09:06:34.901Z,-2.66
2022-12-14T09:09:02.491Z,-2.65
2022-12-14T09:11:30.145Z,-2.63
2022-12-14T09:13:58.101Z,-2.65
2022-12-14T09:16:27.140Z,-2.70
2022-12-14T09:18:55.548Z,-2.71
2022-12-14T09:21:25.006Z,-2.66
2022-12-14T09:23:57.506Z,-2.61
2022-12-14T09:26:27.204Z,-2.57
2022-12-14T09:28:57.421Z,-2.53
2022-12-14T09:31:27.283Z,-2.46
2022-12-14T09:33:56.616Z,-2.40
2022-12-14T09:36:29.124Z,-2.40
2022-12-14T09:38:57.745Z,-2.37
2022-12-14T09:41:36.297Z,-2.33
2022-12-14T09:44:13.132Z,-2.29
2022-12-14T09:46:57.198Z,-2.24
2022-12-14T09:49:29.064Z,-2.19
2022-12-14T09:52:01.205Z,-2.18
2022-12-14T09:54:32.930Z,-2.14
2022-12-14T09:57:05.722Z,-2.12
2022-12-14T09:59:33.988Z,-2.10
2022-12-14T10:02:31.384Z,-2.08
2022-12-14T10:05:24.743Z,-2.04
2022-12-14T10:08:02.823Z,-2.01
2022-12-14T10:10:41.231Z,-2.01
2022-12-14T10:13:20.209Z,-1.99
2022-12-14T10:15:58.001Z,-1.98
2022-12-14T10:19:00.707Z,-1.97
2022-12-14T10:21:42.255Z,-1.94
2022-12-14T10:24:18.493Z,-1.91
2022-12-14T10:26:51.245Z,-1.89
2022-12-14T10:29:22.660Z,-1.81
2022-12-14T10:32:00.094Z,-1.79
2022-12-14T10:34:30.804Z,-1.80
2022-12-14T10:37:10.202Z,-1.79
2022-12-14T10:39:49.604Z,-1.76
2022-12-14T10:42:23.142Z,-1.75
2022-12-14T10:45:39.575Z,-1.73
2022-12-14T10:47:53.561Z,-1.71
2022-12-14T10:50:30.337Z,-1.71
2022-12-14T10:52:59.527Z,-1.72
2022-12-14T10:55:31.908Z,-1.72
2022-12-14T10:57:59.432Z,-1.68
2022-12-14T11:00:27.168Z,-1.62
2022-12-14T11:02:56.768Z,-1.59
2022-12-14T11:05:36.930Z,-1.57
2022-12-14T11:08:06.648Z,-1.53
2022-12-14T11:10:39.249Z,-1.51
2022-12-14T11:13:16.098Z,-1.51
2022-12-14T11:15:45.559Z,-1.50
2022-12-14T11:18:28.083Z,-1.50
2022-12-14T11:20:57.712Z,-1.49
2022-12-14T11:23:27.628Z,-1.48
2022-12-14T11:26:00.179Z,-1.49
2022-12-14T11:28:37.587Z,-1.49
2022-12-14T11:31:08.525Z,-1.46
2022-12-14T11:33:50.191Z,-1.43
2022-12-14T11:36:25.582Z,-1.40
2022-12-14T11:38:57.441Z,-1.37
2022-12-14T11:41:30.104Z,-1.34
2022-12-14T11:44:06.821Z,-1.31
2022-12-14T11:46:46.668Z,-1.32
2022-12-14T11:49:27.172Z,-1.32
2022-12-14T11:51:56.643Z,-1.34
2022-12-14T11:54:24.185Z,-1.35
2022-12-14T11:56:57.516Z,-1.36
2022-12-14T11:59:29.943Z,-1.38
2022-12-14T12:01:57.771Z,-1.37
2022-12-14T12:04:26.191Z,-1.36
2022-12-14T12:06:55.654Z,-1.34
2022-12-14T12:09:31.149Z,-1.32
2022-12-14T12:12:00.139Z,-1.29
2022-12-14T12:14:34.133Z,-1.28
2022-12-14T12:17:02.352Z,-1.28
2022-12-14T12:19:34.554Z,-1.25
2022-12-14T12:22:03.473Z,-1.22
2022-12-14T12:24:41.682Z,-1.18
2022-12-14T12:27:19.712Z,-1.14
2022-12-14T12:29:51.389Z,-1.12
2022-12-14T12:32:23.375Z,-1.09
2022-12-14T12:35:01.403Z,-1.04
2022-12-14T12:37:38.038Z,-1.02
2022-12-14T12:40:15.987Z,-1.03
2022-12-14T12:42:49.534Z,-1.00
2022-12-14T12:45:21.839Z,-1.00
2022-12-14T12:47:53.266Z,-0.96
2022-12-14T12:50:23.803Z,-0.93
2022-12-14T12:53:03.226Z,-0.91
2022-12-14T12:55:36.628Z,-0.88
2022-12-14T12:58:09.785Z,-0.81
2022-12-14T13:00:39.785Z,-0.77
2022-12-14T13:03:11.579Z,-0.75
2022-12-14T13:05:47.076Z,-0.74
2022-12-14T13:08:23.695Z,-0.71
2022-12-14T13:11:25.520Z,-0.69
2022-12-14T13:13:46.453Z,-0.66
2022-12-14T13:16:26.265Z,-0.63
2022-12-14T13:19:19.085Z,-0.59
2022-12-14T13:21:51.888Z,-0.56
2022-12-14T13:24:21.941Z,-0.51
2022-12-14T13:27:12.266Z,-0.46
2022-12-14T13:30:00.450Z,-0.41
2022-12-14T13:32:43.594Z,-0.37
2022-12-14T13:35:30.128Z,-0.30
2022-12-14T13:38:18.904Z,-0.25
2022-12-14T13:41:19.538Z,-0.18
2022-12-14T13:44:05.499Z,-0.14
2022-12-14T13:46:34.817Z,-0.11
2022-12-14T13:49:08.182Z,-0.09
2022-12-14T13:51:39.056Z,-0.06
2022-12-14T13:54:17.132Z,-0.04
2022-12-14T13:56:45.213Z,-0.01
2022-12-14T13:59:29.032Z,0.02
2022-12-14T14:01:59.896Z,0.05
2022-12-14T14:04:29.395Z,0.08
2022-12-14T14:06:58.015Z,0.10
2022-12-14T14:10:01.045Z,0.13
2022-12-14T14:12:40.591Z,0.14
2022-12-14T14:15:26.574Z,0.17
2022-12-14T14:18:02.631Z,0.21
2022-12-14T14:20:38.239Z,0.23
2022-12-14T14:23:29.809Z,0.24
2022-12-14T14:26:17.423Z,0.27
2022-12-14T14:28:49.468Z,0.27
2022-12-14T14:31:17.388Z,0.28
2022-12-14T14:33:50.163Z,0.30
2022-12-14T14:36:23.450Z,0.29
2022-12-14T14:38:51.908Z,0.33
2022-12-14T14:41:24.432Z,0.35
2022-12-14T14:43:54.653Z,0.36
2022-12-14T14:46:34.632Z,0.38
2022-12-14T14:49:04.429Z,0.40
2022-12-14T14:51:36.359Z,0.39
2022-12-14T14:57:34.235Z,0.46
2022-12-14T15:00:03.755Z,0.44
2022-12-14T15:02:34.311Z,0.45
2022-12-14T15:05:33.112Z,0.48
2022-12-14T15:07:55.828Z,0.51
2022-12-14T15:10:29.573Z,0.54
2022-12-14T15:13:02.521Z,0.58
2022-12-14T15:15:36.626Z,0.62
2022-12-14T15:18:23.795Z,0.65
2022-12-14T15:20:58.948Z,0.67
2022-12-14T15:23:31.743Z,0.69
2022-12-14T15:26:02.646Z,0.70
2022-12-14T15:28:32.205Z,0.70
2022-12-14T15:31:00.289Z,0.71
2022-12-14T15:33:32.238Z,0.72
2022-12-14T15:36:05.619Z,0.73
2022-12-14T15:38:34.929Z,0.74
2022-12-14T15:41:04.876Z,0.75
2022-12-14T15:43:33.891Z,0.74
2022-12-14T15:46:03.647Z,0.74
2022-12-14T15:48:34.268Z,0.73
2022-12-14T15:51:06.139Z,0.73
2022-12-14T15:53:36.444Z,0.72
2022-12-14T15:56:17.542Z,0.74
2022-12-14T15:58:45.835Z,0.74
2022-12-14T16:01:18.895Z,0.75
2022-12-14T16:03:49.878Z,0.75
2022-12-14T16:06:19.765Z,0.75
2022-12-14T16:08:53.120Z,0.75
2022-12-14T16:11:26.564Z,0.75
2022-12-14T16:13:57.897Z,0.74
2022-12-14T16:16:25.773Z,0.73
2022-12-14T16:18:54.281Z,0.73
2022-12-14T16:21:32.176Z,0.72
2022-12-14T16:24:01.055Z,0.71
2022-12-14T16:26:36.179Z,0.71
2022-12-14T16:29:09.799Z,0.70
2022-12-14T16:31:38.434Z,0.69
2022-12-14T16:34:14.972Z,0.71
2022-12-14T16:36:56.276Z,0.71
2022-12-14T16:39:37.839Z,0.73
2022-12-14T16:42:07.056Z,0.73
2022-12-14T16:44:40.712Z,0.73
2022-12-14T16:47:28.535Z,0.74
2022-12-14T16:49:59.542Z,0.74
2022-12-14T16:52:31.386Z,0.74
2022-12-14T16:55:14.131Z,0.71
2022-12-14T16:57:52.458Z,0.72
2022-12-14T17:00:23.389Z,0.72
2022-12-14T17:02:57.527Z,0.71
2022-12-14T17:05:30.143Z,0.69
2022-12-14T17:07:59.064Z,0.71
2022-12-14T17:10:27.100Z,0.70
2022-12-14T17:12:57.598Z,0.71
2022-12-14T17:15:26.730Z,0.72
2022-12-14T17:17:56.041Z,0.75
2022-12-14T17:20:26.202Z,0.76
2022-12-14T17:22:55.063Z,0.77
2022-12-14T17:25:23.946Z,0.78
2022-12-14T17:27:51.673Z,0.79
2022-12-14T17:30:21.643Z,0.79
2022-12-14T17:32:51.437Z,0.79
2022-12-14T17:35:21.360Z,0.79
2022-12-14T17:37:49.536Z,0.77
2022-12-14T17:40:17.887Z,0.78
2022-12-14T17:42:52.023Z,0.78
2022-12-14T17:45:22.754Z,0.75
2022-12-14T17:47:50.510Z,0.75
2022-12-14T17:50:19.448Z,0.75
2022-12-14T17:52:48.058Z,0.76
2022-12-14T17:55:18.621Z,0.78
2022-12-14T17:57:47.914Z,0.78
2022-12-14T18:00:38.614Z,0.78
2022-12-14T18:03:07.037Z,0.79
2022-12-14T18:05:34.994Z,0.79
2022-12-14T18:08:02.523Z,0.78
2022-12-14T18:10:30.138Z,0.79
2022-12-14T18:12:59.211Z,0.80
2022-12-14T18:15:28.905Z,0.79
2022-12-14T18:17:57.043Z,0.77
2022-12-14T18:20:25.072Z,0.75
2022-12-14T18:22:53.290Z,0.74
2022-12-14T18:25:31.565Z,0.76
2022-12-14T18:28:01.213Z,0.75
2022-12-14T18:30:35.048Z,0.76
2022-12-14T18:33:06.547Z,0.77
2022-12-14T18:35:34.831Z,0.76
2022-12-14T18:38:02.391Z,0.78
2022-12-14T18:40:30.758Z,0.77
2022-12-14T18:42:59.754Z,0.75
2022-12-14T18:45:29.833Z,0.74
2022-12-14T18:47:59.074Z,0.74
2022-12-14T18:50:26.640Z,0.74
2022-12-14T18:52:55.522Z,0.76
2022-12-14T18:55:25.054Z,0.77
2022-12-14T18:57:55.422Z,0.78
2022-12-14T19:00:26.495Z,0.80
2022-12-14T19:02:58.280Z,0.78
2022-12-14T19:05:26.622Z,0.79
2022-12-14T19:07:54.183Z,0.77
2022-12-14T19:10:24.111Z,0.77
2022-12-14T19:12:51.864Z,0.76
2022-12-14T19:15:21.771Z,0.73
2022-12-14T19:17:53.165Z,0.72
2022-12-14T19:20:24.479Z,0.72
2022-12-14T19:22:52.609Z,0.73
2022-12-14T19:25:21.670Z,0.74
2022-12-14T19:30:37.405Z,0.71
2022-12-14T19:33:06.396Z,0.69
2022-12-14T19:35:33.966Z,0.65
2022-12-14T19:38:01.610Z,0.63
2022-12-14T19:40:29.241Z,0.63
2022-12-14T19:42:56.980Z,0.59
2022-12-14T19:45:24.551Z,0.58
2022-12-14T19:47:52.151Z,0.59
2022-12-14T19:50:21.370Z,0.60
2022-12-14T19:52:49.069Z,0.59
2022-12-14T19:55:18.240Z,0.59
2022-12-14T19:57:45.898Z,0.61
2022-12-14T20:00:14.391Z,0.59
2022-12-14T20:02:42.203Z,0.58
2022-12-14T20:05:10.304Z,0.59
2022-12-14T20:07:43.855Z,0.59
2022-12-14T20:10:25.917Z,0.59
2022-12-14T20:12:56.362Z,0.59
2022-12-14T20:15:24.052Z,0.57
2022-12-14T20:17:52.922Z,0.57
2022-12-14T20:20:23.830Z,0.55
2022-12-14T20:22:55.743Z,0.54
2022-12-14T20:25:26.361Z,0.53
2022-12-14T20:27:53.950Z,0.53
2022-12-14T20:30:21.577Z,0.51
2022-12-14T20:32:49.539Z,0.51
2022-12-14T20:35:18.661Z,0.50
2022-12-14T20:37:46.449Z,0.48
2022-12-14T20:40:15.672Z,0.48
2022-12-14T20:42:43.229Z,0.47
2022-12-14T20:45:11.175Z,0.46
2022-12-14T20:47:38.697Z,0.38
2022-12-14T20:50:06.843Z,0.28
2022-12-14T20:52:34.391Z,0.21
2022-12-14T20:55:01.941Z,0.15
2022-12-14T20:57:33.006Z,0.07
2022-12-14T21:00:00.736Z,0.04
2022-12-14T21:02:28.793Z,0.01
2022-12-14T21:04:56.485Z,-0.03
2022-12-14T21:07:26.239Z,-0.02
2022-12-14T21:09:54.343Z,0.05
2022-12-14T21:12:20.963Z,0.04
2022-12-14T21:14:53.060Z,0.03
2022-12-14T21:17:22.982Z,0.01
2022-12-14T21:19:51.365Z,-0.04
2022-12-14T21:22:21.405Z,-0.05
2022-12-14T21:25:06.074Z,-0.05
2022-12-14T21:27:37.999Z,-0.06
2022-12-14T21:30:09.068Z,-0.09
2022-12-14T21:32:37.543Z,-0.08
2022-12-14T21:35:06.361Z,-0.09
2022-12-14T21:37:33.985Z,-0.06
2022-12-14T21:40:03.646Z,-0.02
2022-12-14T21:42:30.369Z,0.02
2022-12-14T21:44:57.895Z,0.07
2022-12-14T21:47:29.531Z,0.12
2022-12-14T21:49:57.373Z,0.15
2022-12-14T21:52:27.698Z,0.18
2022-12-14T21:54:55.825Z,0.23
2022-12-14T21:57:42.907Z,0.23
2022-12-14T22:00:17.900Z,0.24
2022-12-14T22:02:46.954Z,0.20
2022-12-14T22:05:14.565Z,0.12
2022-12-14T22:07:42.163Z,0.03
2022-12-14T22:10:09.769Z,-0.05
2022-12-14T22:12:37.332Z,-0.13
2022-12-14T22:15:05.372Z,-0.17
2022-12-14T22:17:32.958Z,-0.16
2022-12-14T22:20:01.853Z,-0.11
2022-12-14T22:22:29.403Z,-0.10
2022-12-14T22:24:57.039Z,-0.08
2022-12-14T22:27:24.544Z,-0.07
2022-12-14T22:29:52.134Z,-0.03
2022-12-14T22:32:19.789Z,0.00
2022-12-14T22:34:47.405Z,0.05
2022-12-14T22:37:16.604Z,0.13
2022-12-14T22:39:44.256Z,0.17
2022-12-14T22:42:15.395Z,0.19
2022-12-14T22:44:42.929Z,0.21
2022-12-14T22:47:10.483Z,0.22
2022-12-14T22:49:38.015Z,0.19
2022-12-14T22:52:05.570Z,0.12
2022-12-14T22:54:34.573Z,0.10
2022-12-14T22:57:06.133Z,0.09
2022-12-14T22:59:37.855Z,0.04
2022-12-14T23:02:05.960Z,-0.01
2022-12-14T23:04:33.879Z,-0.05
2022-12-14T23:07:01.481Z,-0.08
2022-12-14T23:09:46.748Z,-0.11
2022-12-14T23:12:33.101Z,-0.06
2022-12-14T23:15:18.417Z,-0.01
2022-12-14T23:18:03.676Z,0.04
2022-12-14T23:20:48.844Z,0.08
2022-12-14T23:23:34.702Z,0.11
2022-12-14T23:26:21.024Z,0.14
2022-12-14T23:29:07.532Z,0.17
2022-12-14T23:31:53.101Z,0.19
2022-12-14T23:34:38.232Z,0.20
2022-12-14T23:37:23.642Z,0.19
2022-12-14T23:40:09.050Z,0.22
2022-12-14T23:42:54.343Z,0.23
2022-12-14T23:45:41.029Z,0.26
2022-12-14T23:48:26.327Z,0.25
2022-12-14T23:51:11.580Z,0.24
2022-12-14T23:53:56.915Z,0.21
2022-12-14T23:56:42.016Z,0.20
2022-12-14T23:59:31.865Z,0.21
